createdAt,value
2019-06-27T00:00:42.959Z,81.57
2019-06-27T00:01:42.903Z,80.77
2019-06-27T00:02:42.950Z,80.77
2019-06-27T00:03:42.889Z,80.20
2019-06-27T00:04:42.878Z,80.66
2019-06-27T00:05:42.872Z,80.40
2019-06-27T00:06:42.867Z,80.70
2019-06-27T00:07:42.836Z,79.69
2019-06-27T00:08:42.899Z,80.00
2019-06-27T00:09:42.847Z,80.20
2019-06-27T00:10:42.822Z,80.40
2019-06-27T00:11:42.801Z,80.30
2019-06-27T00:12:42.804Z,79.83
2019-06-27T00:13:42.783Z,80.04
2019-06-27T00:14:42.782Z,80.58
2019-06-27T00:15:42.767Z,80.74
2019-06-27T00:16:42.768Z,80.47
2019-06-27T00:17:42.773Z,80.78
2019-06-27T00:18:42.712Z,80.68
2019-06-27T00:19:42.742Z,80.98
2019-06-27T00:20:42.725Z,81.08
2019-06-27T00:21:42.678Z,81.79
2019-06-27T00:22:42.681Z,81.79
2019-06-27T00:23:42.700Z,81.32
2019-06-27T00:24:42.644Z,81.68
2019-06-27T00:25:42.635Z,81.68
2019-06-27T00:26:56.214Z,81.22
2019-06-27T00:27:43.671Z,81.62
2019-06-27T00:28:42.635Z,81.73
2019-06-27T00:29:42.611Z,81.62
2019-06-27T00:30:42.599Z,81.93
2019-06-27T00:31:42.585Z,81.62
2019-06-27T00:32:42.586Z,81.93
2019-06-27T00:33:42.588Z,81.82
2019-06-27T00:34:42.539Z,81.82
2019-06-27T00:35:42.547Z,81.73
2019-06-27T00:36:42.520Z,81.62
2019-06-27T00:37:42.562Z,80.82
2019-06-27T00:38:42.510Z,80.92
2019-06-27T00:39:42.520Z,81.68
2019-06-27T00:40:42.486Z,81.12
2019-06-27T00:41:42.475Z,81.22
2019-06-27T00:42:42.465Z,81.52
2019-06-27T00:43:42.470Z,81.52
2019-06-27T00:44:42.433Z,81.52
2019-06-27T00:45:42.463Z,81.93
2019-06-27T00:46:42.432Z,82.23
2019-06-27T00:47:42.411Z,81.73
2019-06-27T00:48:42.433Z,81.52
2019-06-27T00:49:42.387Z,81.22
2019-06-27T00:50:42.399Z,81.32
2019-06-27T00:51:45.219Z,81.22
2019-06-27T00:52:42.357Z,80.92
2019-06-27T00:53:42.352Z,81.62
2019-06-27T00:54:42.354Z,81.73
2019-06-27T00:55:42.371Z,81.36
2019-06-27T00:56:42.314Z,82.07
2019-06-27T00:57:42.305Z,81.96
2019-06-27T00:58:42.294Z,82.61
2019-06-27T00:59:42.297Z,82.37
2019-06-27T01:00:42.262Z,82.57
2019-06-27T01:01:42.270Z,82.57
2019-06-27T01:02:42.239Z,82.71
2019-06-27T01:03:42.239Z,82.57
2019-06-27T01:04:42.328Z,82.71
2019-06-27T01:05:42.227Z,82.91
2019-06-27T01:06:42.198Z,83.32
2019-06-27T01:07:42.196Z,83.01
2019-06-27T01:08:42.184Z,83.01
2019-06-27T01:09:42.163Z,83.12
2019-06-27T01:10:42.189Z,83.01
2019-06-27T01:11:42.174Z,82.71
2019-06-27T01:12:42.146Z,83.32
2019-06-27T01:13:42.141Z,83.62
2019-06-27T01:14:42.109Z,83.15
2019-06-27T01:15:42.107Z,83.15
2019-06-27T01:16:42.109Z,83.46
2019-06-27T01:17:42.082Z,83.76
2019-06-27T01:18:42.077Z,83.56
2019-06-27T01:19:42.073Z,83.76
2019-06-27T01:20:42.090Z,83.36
2019-06-27T01:21:42.034Z,83.76
2019-06-27T01:22:42.050Z,83.15
2019-06-27T01:23:45.079Z,83.26
2019-06-27T01:24:42.018Z,83.36
2019-06-27T01:25:42.205Z,83.15
2019-06-27T01:26:41.984Z,83.56
2019-06-27T01:27:41.983Z,83.76
2019-06-27T01:28:41.980Z,83.86
2019-06-27T01:29:41.954Z,84.37
2019-06-27T01:30:41.965Z,83.56
2019-06-27T01:31:41.943Z,83.26
2019-06-27T01:32:41.917Z,83.26
2019-06-27T01:33:41.915Z,83.66
2019-06-27T01:34:41.933Z,83.05
2019-06-27T01:35:41.906Z,82.85
2019-06-27T01:36:41.881Z,83.15
2019-06-27T01:37:41.873Z,82.41
2019-06-27T01:38:41.858Z,82.71
2019-06-27T01:39:41.891Z,82.31
2019-06-27T01:40:41.864Z,82.65
2019-06-27T01:41:41.844Z,82.01
2019-06-27T01:42:41.812Z,83.12
2019-06-27T01:43:41.803Z,82.65
2019-06-27T01:44:41.795Z,81.94
2019-06-27T01:45:41.776Z,82.65
2019-06-27T01:46:41.793Z,82.45
2019-06-27T01:47:41.793Z,82.95
2019-06-27T01:48:41.751Z,83.56
2019-06-27T01:49:41.750Z,82.85
2019-06-27T01:50:41.737Z,82.35
2019-06-27T01:51:41.726Z,82.65
2019-06-27T01:52:41.737Z,82.14
2019-06-27T01:53:41.700Z,82.95
2019-06-27T01:54:41.684Z,83.15
2019-06-27T01:55:41.671Z,82.55
2019-06-27T01:56:41.661Z,82.65
2019-06-27T01:57:46.616Z,83.15
2019-06-27T01:58:42.666Z,83.15
2019-06-27T01:59:41.625Z,83.66
2019-06-27T02:00:41.624Z,83.19
2019-06-27T02:01:41.614Z,83.09
2019-06-27T02:02:41.596Z,83.70
2019-06-27T02:03:41.587Z,83.60
2019-06-27T02:04:41.597Z,83.19
2019-06-27T02:05:41.565Z,83.29
2019-06-27T02:06:41.562Z,83.50
2019-06-27T02:07:41.551Z,83.40
2019-06-27T02:08:41.550Z,83.40
2019-06-27T02:09:41.540Z,83.80
2019-06-27T02:10:41.530Z,83.90
2019-06-27T02:11:41.505Z,84.11
2019-06-27T02:12:41.495Z,84.11
2019-06-27T02:13:41.478Z,83.70
2019-06-27T02:14:41.482Z,84.00
2019-06-27T02:15:41.467Z,84.20
2019-06-27T02:16:41.460Z,83.90
2019-06-27T02:17:41.445Z,84.14
2019-06-27T02:18:41.447Z,84.45
2019-06-27T02:19:41.417Z,84.65
2019-06-27T02:20:41.419Z,85.16
2019-06-27T02:21:41.392Z,84.85
2019-06-27T02:22:41.400Z,85.46
2019-06-27T02:23:41.379Z,85.39
2019-06-27T02:24:41.374Z,85.50
2019-06-27T02:25:41.355Z,85.50
2019-06-27T02:26:41.357Z,85.39
2019-06-27T02:27:41.331Z,85.36
2019-06-27T02:28:41.509Z,85.16
2019-06-27T02:29:41.316Z,84.65
2019-06-27T02:30:41.298Z,84.75
2019-06-27T02:31:41.299Z,84.14
2019-06-27T02:32:41.275Z,84.25
2019-06-27T02:33:41.263Z,84.34
2019-06-27T02:34:41.284Z,84.14
2019-06-27T02:35:41.261Z,84.14
2019-06-27T02:36:41.266Z,84.04
2019-06-27T02:37:41.241Z,84.65
2019-06-27T02:38:41.215Z,84.04
2019-06-27T02:39:41.198Z,84.04
2019-06-27T02:40:41.185Z,84.55
2019-06-27T02:41:41.200Z,83.94
2019-06-27T02:42:41.178Z,84.04
2019-06-27T02:43:41.168Z,84.04
2019-06-27T02:44:41.153Z,83.84
2019-06-27T02:45:41.138Z,83.94
2019-06-27T02:46:41.152Z,84.04
2019-06-27T02:47:41.114Z,83.94
2019-06-27T02:48:41.116Z,84.04
2019-06-27T02:49:41.117Z,83.74
2019-06-27T02:50:41.084Z,83.94
2019-06-27T02:51:41.072Z,83.54
2019-06-27T02:52:41.089Z,83.23
2019-06-27T02:53:41.063Z,83.13
2019-06-27T02:54:41.087Z,83.03
2019-06-27T02:55:41.061Z,83.64
2019-06-27T02:56:41.028Z,83.84
2019-06-27T02:57:41.032Z,83.94
2019-06-27T02:58:41.001Z,83.74
2019-06-27T02:59:40.993Z,83.44
2019-06-27T03:00:40.976Z,83.44
2019-06-27T03:01:40.962Z,83.44
2019-06-27T03:02:40.990Z,83.33
2019-06-27T03:03:40.945Z,83.44
2019-06-27T03:04:40.942Z,83.68
2019-06-27T03:05:40.946Z,83.33
2019-06-27T03:06:40.940Z,83.13
2019-06-27T03:07:40.898Z,83.03
2019-06-27T03:08:40.908Z,83.23
2019-06-27T03:09:40.889Z,83.23
2019-06-27T03:10:41.085Z,83.23
2019-06-27T03:11:40.854Z,83.98
2019-06-27T03:12:40.854Z,83.88
2019-06-27T03:13:40.843Z,84.59
2019-06-27T03:14:40.843Z,84.19
2019-06-27T03:15:40.816Z,84.33
2019-06-27T03:16:40.797Z,84.19
2019-06-27T03:17:40.801Z,84.42
2019-06-27T03:18:40.804Z,84.22
2019-06-27T03:19:40.774Z,84.93
2019-06-27T03:20:40.806Z,84.83
2019-06-27T03:21:40.756Z,84.83
2019-06-27T03:22:40.747Z,84.63
2019-06-27T03:23:40.729Z,84.48
2019-06-27T03:24:40.717Z,84.19
2019-06-27T03:25:40.704Z,84.73
2019-06-27T03:26:40.716Z,85.44
2019-06-27T03:27:40.677Z,85.39
2019-06-27T03:28:52.074Z,84.83
2019-06-27T03:29:41.673Z,85.54
2019-06-27T03:30:40.680Z,85.24
2019-06-27T03:31:40.641Z,85.24
2019-06-27T03:32:40.655Z,85.44
2019-06-27T03:33:40.644Z,84.42
2019-06-27T03:34:40.606Z,84.73
2019-06-27T03:35:40.621Z,84.63
2019-06-27T03:36:40.595Z,85.54
2019-06-27T03:37:40.584Z,85.24
2019-06-27T03:38:40.577Z,85.44
2019-06-27T03:39:40.547Z,84.83
2019-06-27T03:40:40.543Z,84.63
2019-06-27T03:41:40.556Z,84.22
2019-06-27T03:42:40.563Z,84.22
2019-06-27T03:43:40.508Z,84.48
2019-06-27T03:44:40.516Z,84.22
2019-06-27T03:45:40.495Z,83.88
2019-06-27T03:46:40.486Z,84.22
2019-06-27T03:47:40.465Z,84.12
2019-06-27T03:48:40.454Z,84.63
2019-06-27T03:49:40.452Z,84.53
2019-06-27T03:50:40.479Z,85.44
2019-06-27T03:51:40.450Z,84.63
2019-06-27T03:52:40.424Z,84.63
2019-06-27T03:53:40.412Z,84.73
2019-06-27T03:54:40.413Z,84.73
2019-06-27T03:55:40.380Z,84.33
2019-06-27T03:56:40.386Z,84.73
2019-06-27T03:57:44.563Z,84.73
2019-06-27T03:58:41.395Z,85.44
2019-06-27T03:59:40.356Z,85.24
2019-06-27T04:00:40.350Z,84.73
2019-06-27T04:01:40.322Z,85.54
2019-06-27T04:02:40.330Z,85.54
2019-06-27T04:03:42.952Z,85.54
2019-06-27T04:04:40.304Z,84.69
2019-06-27T04:05:40.288Z,84.59
2019-06-27T04:06:40.284Z,84.63
2019-06-27T04:07:40.373Z,84.73
2019-06-27T04:08:40.252Z,84.22
2019-06-27T04:09:40.233Z,84.83
2019-06-27T04:10:40.798Z,85.44
2019-06-27T04:11:40.246Z,85.24
2019-06-27T04:12:40.253Z,85.84
2019-06-27T04:13:41.279Z,85.99
2019-06-27T04:14:40.219Z,85.99
2019-06-27T04:15:40.230Z,86.69
2019-06-27T04:16:40.213Z,86.85
2019-06-27T04:17:40.201Z,87.20
2019-06-27T04:18:40.233Z,87.54
2019-06-27T04:19:40.153Z,87.14
2019-06-27T04:20:40.152Z,87.60
2019-06-27T04:21:40.104Z,87.54
2019-06-27T04:22:40.161Z,87.45
2019-06-27T04:23:40.769Z,87.24
2019-06-27T04:24:40.128Z,87.51
2019-06-27T04:25:40.771Z,86.90
2019-06-27T04:26:40.106Z,85.99
2019-06-27T04:27:40.079Z,85.68
2019-06-27T04:28:40.059Z,85.13
2019-06-27T04:29:40.123Z,85.68
2019-06-27T04:30:40.026Z,85.44
2019-06-27T04:31:40.039Z,85.33
2019-06-27T04:32:40.063Z,84.83
2019-06-27T04:33:40.031Z,85.64
2019-06-27T04:34:40.011Z,85.33
2019-06-27T04:35:39.999Z,85.64
2019-06-27T04:36:39.994Z,85.24
2019-06-27T04:37:40.040Z,85.27
2019-06-27T04:38:40.059Z,86.08
2019-06-27T04:39:39.948Z,85.38
2019-06-27T04:40:39.955Z,85.88
2019-06-27T04:41:39.939Z,85.38
2019-06-27T04:42:39.938Z,85.27
2019-06-27T04:43:40.769Z,85.78
2019-06-27T04:44:40.761Z,85.64
2019-06-27T04:45:39.883Z,85.33
2019-06-27T04:46:39.914Z,85.44
2019-06-27T04:47:39.814Z,85.27
2019-06-27T04:48:39.814Z,85.24
2019-06-27T04:49:39.845Z,84.73
2019-06-27T04:50:39.881Z,84.22
2019-06-27T04:51:39.814Z,84.12
2019-06-27T04:52:39.848Z,83.72
2019-06-27T04:53:39.796Z,83.01
2019-06-27T04:54:39.765Z,83.41
2019-06-27T04:55:39.758Z,83.61
2019-06-27T04:56:39.844Z,82.97
2019-06-27T04:57:39.768Z,82.76
2019-06-27T04:58:39.742Z,83.92
2019-06-27T04:59:52.844Z,83.51
2019-06-27T05:00:40.755Z,83.51
2019-06-27T05:01:39.707Z,83.72
2019-06-27T05:02:39.797Z,83.11
2019-06-27T05:03:39.679Z,82.50
2019-06-27T05:04:39.675Z,82.50
2019-06-27T05:05:39.702Z,82.20
2019-06-27T05:06:39.645Z,82.30
2019-06-27T05:07:39.777Z,82.50
2019-06-27T05:08:39.816Z,81.59
2019-06-27T05:09:39.641Z,81.90
2019-06-27T05:10:39.638Z,81.90
2019-06-27T05:11:39.586Z,81.59
2019-06-27T05:12:39.600Z,81.59
2019-06-27T05:13:39.576Z,81.99
2019-06-27T05:14:39.690Z,81.99
2019-06-27T05:15:39.569Z,82.10
2019-06-27T05:16:39.548Z,82.81
2019-06-27T05:17:39.577Z,82.20
2019-06-27T05:18:39.579Z,82.40
2019-06-27T05:19:39.524Z,81.85
2019-06-27T05:20:39.504Z,82.46
2019-06-27T05:21:39.521Z,81.55
2019-06-27T05:22:39.486Z,81.35
2019-06-27T05:23:39.530Z,81.45
2019-06-27T05:24:39.477Z,81.35
2019-06-27T05:25:39.441Z,80.94
2019-06-27T05:26:39.445Z,81.25
2019-06-27T05:27:39.418Z,82.26
2019-06-27T05:28:39.593Z,81.85
2019-06-27T05:29:39.449Z,82.42
2019-06-27T05:30:40.271Z,82.26
2019-06-27T05:31:39.362Z,81.96
2019-06-27T05:32:39.390Z,81.65
2019-06-27T05:33:39.335Z,81.55
2019-06-27T05:34:39.850Z,81.76
2019-06-27T05:35:39.347Z,81.01
2019-06-27T05:36:39.334Z,81.41
2019-06-27T05:37:39.356Z,80.80
2019-06-27T05:38:40.340Z,81.01
2019-06-27T05:39:39.423Z,81.21
2019-06-27T05:40:39.461Z,81.01
2019-06-27T05:41:39.301Z,81.01
2019-06-27T05:42:39.253Z,80.60
2019-06-27T05:43:39.303Z,80.16
2019-06-27T05:44:39.295Z,79.75
2019-06-27T05:45:39.213Z,79.86
2019-06-27T05:46:39.373Z,79.46
2019-06-27T05:47:39.276Z,79.25
2019-06-27T05:48:39.890Z,79.25
2019-06-27T05:49:39.217Z,79.55
2019-06-27T05:50:39.137Z,79.01
2019-06-27T05:51:39.204Z,78.81
2019-06-27T05:52:40.236Z,78.50
2019-06-27T05:53:39.167Z,78.30
2019-06-27T05:54:39.204Z,78.61
2019-06-27T05:55:39.129Z,78.41
2019-06-27T05:56:39.134Z,78.61
2019-06-27T05:57:39.094Z,78.50
2019-06-27T05:58:39.149Z,77.90
2019-06-27T05:59:39.176Z,78.50
2019-06-27T06:00:39.079Z,78.37
2019-06-27T06:01:39.224Z,77.97
2019-06-27T06:02:39.136Z,78.17
2019-06-27T06:03:39.834Z,77.42
2019-06-27T06:04:39.070Z,77.66
2019-06-27T06:05:39.040Z,77.53
2019-06-27T06:06:39.110Z,77.12
2019-06-27T06:07:39.016Z,76.48
2019-06-27T06:08:38.988Z,76.07
2019-06-27T06:09:39.834Z,75.87
2019-06-27T06:10:39.186Z,75.98
2019-06-27T06:11:38.951Z,75.87
2019-06-27T06:12:39.005Z,75.87
2019-06-27T06:13:38.982Z,76.01
2019-06-27T06:14:38.972Z,75.87
2019-06-27T06:15:38.914Z,76.07
2019-06-27T06:16:38.889Z,75.98
2019-06-27T06:17:38.916Z,74.96
2019-06-27T06:18:38.907Z,75.54
2019-06-27T06:19:38.872Z,75.54
2019-06-27T06:20:38.834Z,74.73
2019-06-27T06:21:38.802Z,73.58
2019-06-27T06:22:39.062Z,74.19
2019-06-27T06:23:38.785Z,74.69
2019-06-27T06:24:38.817Z,74.08
2019-06-27T06:25:38.776Z,73.48
2019-06-27T06:26:38.768Z,74.08
2019-06-27T06:27:38.740Z,72.78
2019-06-27T06:28:38.767Z,72.47
2019-06-27T06:29:38.766Z,73.28
2019-06-27T06:30:44.504Z,74.08
2019-06-27T06:31:39.727Z,73.62
2019-06-27T06:32:38.707Z,73.42
2019-06-27T06:33:38.679Z,73.62
2019-06-27T06:34:38.668Z,73.92
2019-06-27T06:35:38.663Z,74.12
2019-06-27T06:36:38.739Z,74.05
2019-06-27T06:37:38.650Z,73.75
2019-06-27T06:38:38.632Z,74.26
2019-06-27T06:39:38.619Z,73.75
2019-06-27T06:40:38.600Z,74.05
2019-06-27T06:41:38.591Z,74.16
2019-06-27T06:42:38.579Z,73.96
2019-06-27T06:43:38.989Z,74.87
2019-06-27T06:44:38.577Z,73.65
2019-06-27T06:45:38.548Z,73.85
2019-06-27T06:46:38.534Z,73.75
2019-06-27T06:47:38.526Z,73.75
2019-06-27T06:48:38.520Z,73.45
2019-06-27T06:49:38.524Z,72.81
2019-06-27T06:50:38.499Z,72.91
2019-06-27T06:51:38.512Z,72.71
2019-06-27T06:52:38.489Z,73.32
2019-06-27T06:53:38.466Z,73.22
2019-06-27T06:54:38.450Z,72.27
2019-06-27T06:55:38.482Z,72.20
2019-06-27T06:56:38.435Z,72.81
2019-06-27T06:57:38.480Z,72.51
2019-06-27T06:58:38.408Z,72.38
2019-06-27T06:59:38.393Z,72.47
2019-06-27T07:00:38.400Z,72.17
2019-06-27T07:01:38.494Z,71.67
2019-06-27T07:02:38.373Z,71.37
2019-06-27T07:03:38.351Z,72.38
2019-06-27T07:04:38.393Z,72.38
2019-06-27T07:05:38.330Z,72.04
2019-06-27T07:06:38.332Z,72.07
2019-06-27T07:07:38.324Z,71.44
2019-06-27T07:08:38.311Z,71.33
2019-06-27T07:09:38.306Z,71.13
2019-06-27T07:10:38.295Z,70.53
2019-06-27T07:11:38.292Z,70.09
2019-06-27T07:12:38.313Z,68.88
2019-06-27T07:13:38.327Z,69.59
2019-06-27T07:14:38.234Z,68.95
2019-06-27T07:15:38.267Z,68.21
2019-06-27T07:16:38.253Z,67.88
2019-06-27T07:17:38.206Z,67.47
2019-06-27T07:18:38.190Z,67.47
2019-06-27T07:19:38.247Z,66.87
2019-06-27T07:20:38.183Z,67.21
2019-06-27T07:21:38.225Z,67.11
2019-06-27T07:22:38.181Z,66.74
2019-06-27T07:23:38.152Z,67.14
2019-06-27T07:24:38.128Z,67.61
2019-06-27T07:25:38.237Z,67.61
2019-06-27T07:26:38.107Z,67.51
2019-06-27T07:27:38.101Z,67.81
2019-06-27T07:28:38.103Z,67.18
2019-06-27T07:29:38.077Z,66.37
2019-06-27T07:30:38.095Z,65.73
2019-06-27T07:31:38.095Z,66.03
2019-06-27T07:32:38.042Z,66.34
2019-06-27T07:33:38.057Z,64.60
2019-06-27T07:34:38.019Z,64.90
2019-06-27T07:35:38.017Z,65.10
2019-06-27T07:36:38.013Z,64.83
2019-06-27T07:37:37.986Z,64.03
2019-06-27T07:38:37.988Z,64.73
2019-06-27T07:39:37.969Z,64.60
2019-06-27T07:40:37.979Z,64.03
2019-06-27T07:41:37.982Z,64.03
2019-06-27T07:42:37.934Z,64.63
2019-06-27T07:43:37.920Z,64.63
2019-06-27T07:44:37.914Z,64.53
2019-06-27T07:45:37.964Z,65.03
2019-06-27T07:46:37.899Z,64.93
2019-06-27T07:47:37.932Z,64.13
2019-06-27T07:48:37.890Z,64.83
2019-06-27T07:49:37.869Z,64.93
2019-06-27T07:50:37.877Z,65.03
2019-06-27T07:51:37.866Z,64.93
2019-06-27T07:52:37.830Z,65.00
2019-06-27T07:53:37.823Z,64.50
2019-06-27T07:54:37.805Z,64.53
2019-06-27T07:55:37.793Z,64.33
2019-06-27T07:56:37.811Z,64.33
2019-06-27T07:57:37.828Z,64.33
2019-06-27T07:58:37.797Z,64.33
2019-06-27T07:59:37.756Z,64.33
2019-06-27T08:00:37.793Z,64.33
2019-06-27T08:01:37.842Z,64.13
2019-06-27T08:02:37.721Z,64.13
2019-06-27T08:03:37.743Z,64.03
2019-06-27T08:04:37.700Z,64.43
2019-06-27T08:05:37.713Z,64.03
2019-06-27T08:06:37.738Z,63.82
2019-06-27T08:07:37.694Z,64.30
2019-06-27T08:08:37.709Z,63.19
2019-06-27T08:09:37.649Z,62.49
2019-06-27T08:10:37.653Z,63.06
2019-06-27T08:11:37.653Z,61.99
2019-06-27T08:12:37.639Z,62.16
2019-06-27T08:13:37.629Z,61.66
2019-06-27T08:14:37.626Z,61.35
2019-06-27T08:15:37.588Z,61.15
2019-06-27T08:16:37.572Z,62.36
2019-06-27T08:17:37.564Z,62.36
2019-06-27T08:18:37.593Z,62.36
2019-06-27T08:19:37.559Z,61.33
2019-06-27T08:20:37.548Z,61.72
2019-06-27T08:21:37.520Z,61.50
2019-06-27T08:22:37.565Z,60.22
2019-06-27T08:23:41.914Z,61.70
2019-06-27T08:24:37.516Z,61.30
2019-06-27T08:25:37.515Z,61.30
2019-06-27T08:26:37.477Z,61.00
2019-06-27T08:27:37.479Z,61.00
2019-06-27T08:28:37.442Z,60.19
2019-06-27T08:29:37.442Z,60.19
2019-06-27T08:30:37.480Z,60.49
2019-06-27T08:31:50.584Z,61.00
2019-06-27T08:32:38.430Z,61.17
2019-06-27T08:33:37.383Z,60.97
2019-06-27T08:34:37.377Z,61.27
2019-06-27T08:35:37.383Z,61.27
2019-06-27T08:36:37.384Z,60.97
2019-06-27T08:37:37.340Z,60.97
2019-06-27T08:38:37.361Z,60.10
2019-06-27T08:39:37.318Z,60.39
2019-06-27T08:40:37.315Z,61.00
2019-06-27T08:41:37.321Z,60.39
2019-06-27T08:42:37.299Z,60.06
2019-06-27T08:43:37.322Z,58.83
2019-06-27T08:44:37.331Z,59.03
2019-06-27T08:45:37.257Z,58.00
2019-06-27T08:46:37.252Z,58.61
2019-06-27T08:47:37.271Z,58.03
2019-06-27T08:48:37.262Z,57.30
2019-06-27T08:49:37.227Z,57.20
2019-06-27T08:50:37.535Z,57.00
2019-06-27T08:51:37.215Z,57.17
2019-06-27T08:52:37.190Z,56.98
2019-06-27T08:53:37.169Z,56.65
2019-06-27T08:54:37.173Z,56.02
2019-06-27T08:55:37.145Z,56.42
2019-06-27T08:56:37.175Z,55.29
2019-06-27T08:57:37.138Z,54.77
2019-06-27T08:58:37.174Z,54.64
2019-06-27T08:59:37.119Z,53.31
2019-06-27T09:00:37.121Z,52.99
2019-06-27T09:01:37.090Z,52.47
2019-06-27T09:02:37.138Z,51.35
2019-06-27T09:03:37.081Z,50.43
2019-06-27T09:04:37.058Z,51.92
2019-06-27T09:05:37.063Z,49.80
2019-06-27T09:06:37.036Z,50.38
2019-06-27T09:07:37.038Z,49.48
2019-06-27T09:08:37.010Z,50.25
2019-06-27T09:09:37.021Z,50.05
2019-06-27T09:10:37.065Z,49.41
2019-06-27T09:11:38.304Z,48.22
2019-06-27T09:12:36.971Z,47.94
2019-06-27T09:13:36.986Z,48.26
2019-06-27T09:14:36.959Z,48.64
2019-06-27T09:15:36.937Z,47.92
2019-06-27T09:16:36.967Z,47.99
2019-06-27T09:17:36.931Z,47.47
2019-06-27T09:18:36.925Z,46.16
2019-06-27T09:19:36.929Z,46.64
2019-06-27T09:20:36.900Z,46.44
2019-06-27T09:21:36.888Z,45.84
2019-06-27T09:22:36.880Z,45.47
2019-06-27T09:23:37.719Z,45.47
2019-06-27T09:24:36.875Z,45.96
2019-06-27T09:25:36.849Z,45.56
2019-06-27T09:26:36.829Z,45.19
2019-06-27T09:27:36.808Z,45.79
2019-06-27T09:28:36.826Z,46.19
2019-06-27T09:29:36.785Z,45.96
2019-06-27T09:30:36.801Z,45.25
2019-06-27T09:31:36.775Z,46.83
2019-06-27T09:32:36.999Z,45.03
2019-06-27T09:33:36.784Z,45.82
2019-06-27T09:34:36.744Z,45.82
2019-06-27T09:35:36.742Z,44.29
2019-06-27T09:36:36.732Z,44.19
2019-06-27T09:37:36.704Z,43.89
2019-06-27T09:38:36.712Z,43.26
2019-06-27T09:39:36.700Z,43.35
2019-06-27T09:40:36.666Z,42.76
2019-06-27T09:41:36.660Z,41.47
2019-06-27T09:42:36.644Z,42.66
2019-06-27T09:43:36.666Z,41.95
2019-06-27T09:44:36.644Z,42.14
2019-06-27T09:45:36.637Z,42.44
2019-06-27T09:46:36.609Z,43.04
2019-06-27T09:47:36.598Z,41.38
2019-06-27T09:48:36.604Z,42.86
2019-06-27T09:49:36.572Z,43.16
2019-06-27T09:50:36.580Z,42.35
2019-06-27T09:51:36.571Z,42.76
2019-06-27T09:52:36.598Z,42.96
2019-06-27T09:53:36.591Z,42.76
2019-06-27T09:54:36.517Z,41.65
2019-06-27T09:55:36.505Z,40.96
2019-06-27T09:56:36.521Z,41.53
2019-06-27T09:57:36.483Z,40.94
2019-06-27T09:58:36.528Z,41.63
2019-06-27T09:59:36.495Z,41.63
2019-06-27T10:00:36.498Z,40.98
2019-06-27T10:01:36.443Z,41.18
2019-06-27T10:02:41.902Z,41.49
2019-06-27T10:03:37.420Z,41.06
2019-06-27T10:04:36.507Z,41.93
2019-06-27T10:05:36.412Z,40.55
2019-06-27T10:06:36.388Z,42.03
2019-06-27T10:07:36.377Z,41.53
2019-06-27T10:08:36.363Z,41.52
2019-06-27T10:09:36.380Z,41.52
2019-06-27T10:10:36.352Z,41.53
2019-06-27T10:11:36.388Z,41.14
2019-06-27T10:12:42.325Z,42.14
2019-06-27T10:13:37.324Z,40.96
2019-06-27T10:14:36.645Z,40.88
2019-06-27T10:15:36.303Z,40.39
2019-06-27T10:16:36.329Z,41.65
2019-06-27T10:17:36.313Z,42.74
2019-06-27T10:18:36.330Z,41.95
2019-06-27T10:19:36.282Z,41.44
2019-06-27T10:20:36.300Z,42.40
2019-06-27T10:21:36.259Z,41.52
2019-06-27T10:22:36.268Z,40.23
2019-06-27T10:23:36.205Z,40.34
2019-06-27T10:24:36.277Z,40.34
2019-06-27T10:25:38.242Z,41.12
2019-06-27T10:26:36.191Z,39.64
2019-06-27T10:27:36.237Z,39.03
2019-06-27T10:28:36.174Z,39.50
2019-06-27T10:29:36.147Z,39.65
2019-06-27T10:30:36.155Z,39.44
2019-06-27T10:31:36.122Z,39.76
2019-06-27T10:32:36.158Z,39.25
2019-06-27T10:33:36.169Z,38.61
2019-06-27T10:34:36.119Z,39.42
2019-06-27T10:35:36.195Z,39.72
2019-06-27T10:36:38.449Z,39.00
2019-06-27T10:37:36.057Z,39.09
2019-06-27T10:38:36.048Z,39.06
2019-06-27T10:39:36.102Z,39.26
2019-06-27T10:40:36.043Z,39.04
2019-06-27T10:41:36.052Z,39.15
2019-06-27T10:42:36.809Z,39.17
2019-06-27T10:43:35.997Z,36.88
2019-06-27T10:44:36.002Z,37.45
2019-06-27T10:45:36.027Z,37.15
2019-06-27T10:46:36.038Z,36.94
2019-06-27T10:47:36.010Z,38.62
2019-06-27T10:48:35.940Z,37.51
2019-06-27T10:49:35.931Z,37.83
2019-06-27T10:50:35.947Z,38.01
2019-06-27T10:51:35.944Z,37.41
2019-06-27T10:52:35.908Z,37.04
2019-06-27T10:53:35.935Z,36.84
2019-06-27T10:54:35.903Z,37.32
2019-06-27T10:55:35.899Z,37.41
2019-06-27T10:56:39.742Z,37.12
2019-06-27T10:57:35.859Z,36.66
2019-06-27T10:58:35.929Z,37.65
2019-06-27T10:59:35.862Z,36.46
2019-06-27T11:00:35.829Z,37.15
2019-06-27T11:01:35.820Z,37.02
2019-06-27T11:02:35.886Z,36.53
2019-06-27T11:03:38.411Z,36.41
2019-06-27T11:04:35.774Z,36.23
2019-06-27T11:05:35.769Z,36.84
2019-06-27T11:06:35.766Z,36.58
2019-06-27T11:07:35.761Z,36.58
2019-06-27T11:08:35.800Z,36.76
2019-06-27T11:09:35.745Z,36.57
2019-06-27T11:10:35.715Z,36.65
2019-06-27T11:11:35.725Z,35.25
2019-06-27T11:12:35.695Z,35.25
2019-06-27T11:13:35.698Z,35.02
2019-06-27T11:14:35.741Z,34.72
2019-06-27T11:15:35.661Z,34.05
2019-06-27T11:16:35.654Z,34.66
2019-06-27T11:17:35.683Z,34.84
2019-06-27T11:18:35.639Z,34.15
2019-06-27T11:19:51.194Z,33.56
2019-06-27T11:20:36.660Z,34.56
2019-06-27T11:21:35.687Z,34.56
2019-06-27T11:22:35.604Z,35.64
2019-06-27T11:23:35.601Z,36.04
2019-06-27T11:24:35.558Z,35.64
2019-06-27T11:25:35.554Z,36.35
2019-06-27T11:26:35.554Z,35.44
2019-06-27T11:27:35.572Z,35.33
2019-06-27T11:28:35.524Z,33.34
2019-06-27T11:29:35.528Z,34.64
2019-06-27T11:30:35.497Z,33.94
2019-06-27T11:31:35.512Z,33.05
2019-06-27T11:32:35.514Z,34.23
2019-06-27T11:33:35.474Z,34.05
2019-06-27T11:34:35.470Z,33.95
2019-06-27T11:35:35.499Z,33.65
2019-06-27T11:36:35.469Z,33.97
2019-06-27T11:37:35.455Z,34.28
2019-06-27T11:38:35.436Z,33.80
2019-06-27T11:39:35.445Z,34.20
2019-06-27T11:40:35.415Z,33.92
2019-06-27T11:41:35.449Z,34.51
2019-06-27T11:42:35.410Z,34.49
2019-06-27T11:43:35.379Z,35.07
2019-06-27T11:44:35.388Z,33.97
2019-06-27T11:45:35.342Z,33.77
2019-06-27T11:46:35.360Z,32.79
2019-06-27T11:47:35.379Z,32.29
2019-06-27T11:48:35.338Z,32.79
2019-06-27T11:49:35.339Z,32.67
2019-06-27T11:50:35.328Z,31.69
2019-06-27T11:51:35.374Z,31.79
2019-06-27T11:52:35.282Z,33.25
2019-06-27T11:53:35.279Z,32.38
2019-06-27T11:54:35.303Z,33.54
2019-06-27T11:55:35.239Z,32.56
2019-06-27T11:56:35.243Z,32.28
2019-06-27T11:57:35.279Z,33.65
2019-06-27T11:58:35.211Z,33.94
2019-06-27T11:59:35.221Z,34.54
2019-06-27T12:00:35.234Z,34.17
2019-06-27T12:01:35.273Z,35.82
2019-06-27T12:02:35.207Z,34.94
2019-06-27T12:03:48.439Z,35.31
2019-06-27T12:04:36.157Z,34.22
2019-06-27T12:05:35.134Z,34.20
2019-06-27T12:06:35.118Z,34.01
2019-06-27T12:07:35.130Z,33.91
2019-06-27T12:08:35.104Z,33.91
2019-06-27T12:09:35.156Z,34.10
2019-06-27T12:10:35.102Z,34.00
2019-06-27T12:11:35.082Z,34.18
2019-06-27T12:12:35.089Z,34.16
2019-06-27T12:13:35.186Z,34.05
2019-06-27T12:14:35.048Z,32.76
2019-06-27T12:15:35.035Z,32.27
2019-06-27T12:16:35.026Z,32.10
2019-06-27T12:17:35.018Z,32.53
2019-06-27T12:18:35.047Z,32.45
2019-06-27T12:19:35.017Z,31.85
2019-06-27T12:20:34.986Z,32.24
2019-06-27T12:21:34.978Z,31.57
2019-06-27T12:22:34.956Z,32.23
2019-06-27T12:23:34.957Z,32.04
2019-06-27T12:24:34.943Z,32.12
2019-06-27T12:25:35.009Z,31.92
2019-06-27T12:26:34.921Z,30.85
2019-06-27T12:27:34.928Z,32.02
2019-06-27T12:28:34.911Z,31.15
2019-06-27T12:29:34.890Z,31.43
2019-06-27T12:30:34.886Z,31.53
2019-06-27T12:31:34.864Z,31.04
2019-06-27T12:32:50.319Z,29.37
2019-06-27T12:33:35.866Z,31.05
2019-06-27T12:34:34.838Z,30.47
2019-06-27T12:35:34.849Z,31.26
2019-06-27T12:36:34.819Z,31.87
2019-06-27T12:37:34.808Z,32.77
2019-06-27T12:38:34.795Z,32.77
2019-06-27T12:39:34.869Z,32.89
2019-06-27T12:40:34.791Z,33.79
2019-06-27T12:41:34.765Z,34.13
2019-06-27T12:42:34.768Z,34.56
2019-06-27T12:43:34.787Z,35.88
2019-06-27T12:44:34.731Z,35.99
2019-06-27T12:45:34.759Z,37.22
2019-06-27T12:46:34.771Z,38.03
2019-06-27T12:47:34.703Z,37.95
2019-06-27T12:48:37.011Z,38.15
2019-06-27T12:49:56.668Z,38.84
2019-06-27T12:50:35.675Z,38.74
2019-06-27T12:51:34.711Z,38.94
2019-06-27T12:52:34.728Z,38.05